SCVD/ZAL METAR and TAF weather

Enter ICAO airport designator
Station Type Date Time Source
SCVD METAR 2021/05/14 14:00 UTC NOAA

SCVD 141400Z VRB02KT 7000 VCSH OVC003 10/10 Q1019


Station Type Date Time Source
SCVD Decoded METAR 2021/05/14 14:00 UTC NOAA

Valdivia, Chile (SCVD) 39-37S 073-05W
May 14, 2021 - 10:00 AM EDT / 2021.05.14 1400 UTC
Wind: Variable at 2 MPH (2 KT):0
Visibility: 4 mile(s):0
Sky conditions: overcast
Weather: showers in the vicinity
Temperature: 50 F (10 C)
Dew Point: 50 F (10 C)
Relative Humidity: 100%
Pressure (altimeter): 30.09 in. Hg (1019 hPa)
ob: SCVD 141400Z VRB02KT 7000 VCSH OVC003 10/10 Q1019
cycle: 14

Station Type Date Time Source
SCVD TAF 2021/05/14 12:00 UTC NOAA

TAF SCVD 141040Z 1412/1500 VRB02KT 2500 BR -DZ OVC004 TN09/1412Z TX16/1418Z
FM141500 36005KT 9999 NSW BKN010
BECMG 1416/1418 FEW020 BKN050

Example: see airport list